Terminal Aerodrome Forecast
Issued by NWS Central Illinois

Home | Current Version | Previous Version | Text Only | Print | Product List | Glossary On
Versions: 1 2 3 4 5 6 7 8 9 10 11 12 13 14 15 16 17 18
000
FTUS43 KILX 221500 AAA
TAFSPI
TAF AMD
KSPI 221503Z 2215/2312 19015G20KT P6SM VCSH BKN035 BKN090
      WS020/22045KT
     FM221700 18012G20KT 5SM BR VCSH OVC025
     FM230000 18012KT 4SM BR VCSH OVC015 WS020/22040KT
     FM230600 17012KT 4SM -RADZ BR OVC010 WS020/22040KT=

USA.gov is the U.S. government's official web portal to all federal, state and local government web resources and services.